sensor_id;sensor_type;location;lat;lon;timestamp;P1;durP1;ratioP1;P2;durP2;ratioP2
74213;SDS011;62576;55.694;37.494;2024-02-28T00:03:45;8.50;;;3.20;;
74213;SDS011;62576;55.694;37.494;2024-02-28T00:06:15;11.60;;;3.45;;
74213;SDS011;62576;55.694;37.494;2024-02-28T00:08:46;10.52;;;3.17;;
74213;SDS011;62576;55.694;37.494;2024-02-28T00:11:18;12.30;;;2.88;;
74213;SDS011;62576;55.694;37.494;2024-02-28T00:13:50;11.45;;;3.17;;
74213;SDS011;62576;55.694;37.494;2024-02-28T00:16:21;12.10;;;3.17;;
74213;SDS011;62576;55.694;37.494;2024-02-28T00:18:51;9.80;;;3.25;;
74213;SDS011;62576;55.694;37.494;2024-02-28T00:21:21;10.43;;;3.28;;
74213;SDS011;62576;55.694;37.494;2024-02-28T00:23:51;9.38;;;3.03;;
74213;SDS011;62576;55.694;37.494;2024-02-28T00:26:22;7.50;;;2.85;;
74213;SDS011;62576;55.694;37.494;2024-02-28T00:28:53;12.13;;;3.05;;
74213;SDS011;62576;55.694;37.494;2024-02-28T00:31:23;10.48;;;3.15;;
74213;SDS011;62576;55.694;37.494;2024-02-28T00:33:53;7.82;;;3.22;;
74213;SDS011;62576;55.694;37.494;2024-02-28T00:36:24;10.52;;;3.28;;
74213;SDS011;62576;55.694;37.494;2024-02-28T00:38:54;9.20;;;2.83;;
74213;SDS011;62576;55.694;37.494;2024-02-28T00:41:24;8.18;;;2.70;;
74213;SDS011;62576;55.694;37.494;2024-02-28T00:43:55;8.70;;;3.10;;
74213;SDS011;62576;55.694;37.494;2024-02-28T00:46:25;9.23;;;2.78;;
74213;SDS011;62576;55.694;37.494;2024-02-28T00:48:55;9.35;;;3.17;;
74213;SDS011;62576;55.694;37.494;2024-02-28T00:51:25;10.90;;;3.50;;
74213;SDS011;62576;55.694;37.494;2024-02-28T00:53:55;12.85;;;3.20;;
74213;SDS011;62576;55.694;37.494;2024-02-28T00:56:26;13.10;;;3.42;;
74213;SDS011;62576;55.694;37.494;2024-02-28T00:58:53;8.63;;;2.78;;
74213;SDS011;62576;55.694;37.494;2024-02-28T01:01:25;13.38;;;2.92;;
74213;SDS011;62576;55.694;37.494;2024-02-28T01:03:55;9.45;;;2.90;;
74213;SDS011;62576;55.694;37.494;2024-02-28T01:06:25;8.40;;;3.10;;
74213;SDS011;62576;55.694;37.494;2024-02-28T01:08:55;10.30;;;3.30;;
74213;SDS011;62576;55.694;37.494;2024-02-28T01:11:24;11.93;;;3.85;;
74213;SDS011;62576;55.694;37.494;2024-02-28T01:13:55;9.25;;;3.72;;
74213;SDS011;62576;55.694;37.494;2024-02-28T01:16:27;9.25;;;2.80;;
74213;SDS011;62576;55.694;37.494;2024-02-28T01:18:57;8.70;;;3.28;;
74213;SDS011;62576;55.694;37.494;2024-02-28T01:21:27;10.82;;;3.63;;
74213;SDS011;62576;55.694;37.494;2024-02-28T01:23:57;9.77;;;3.30;;
74213;SDS011;62576;55.694;37.494;2024-02-28T01:26:27;9.95;;;3.60;;
74213;SDS011;62576;55.694;37.494;2024-02-28T01:28:57;10.23;;;3.53;;
74213;SDS011;62576;55.694;37.494;2024-02-28T01:31:29;10.05;;;3.17;;
74213;SDS011;62576;55.694;37.494;2024-02-28T01:33:59;9.45;;;3.60;;
74213;SDS011;62576;55.694;37.494;2024-02-28T01:36:29;11.27;;;3.03;;
74213;SDS011;62576;55.694;37.494;2024-02-28T01:38:59;13.40;;;3.50;;
74213;SDS011;62576;55.694;37.494;2024-02-28T01:41:30;13.93;;;3.15;;
74213;SDS011;62576;55.694;37.494;2024-02-28T01:43:59;9.20;;;3.58;;
74213;SDS011;62576;55.694;37.494;2024-02-28T01:46:31;8.20;;;3.15;;
74213;SDS011;62576;55.694;37.494;2024-02-28T01:49:02;12.07;;;3.58;;
74213;SDS011;62576;55.694;37.494;2024-02-28T01:51:32;7.93;;;3.30;;
74213;SDS011;62576;55.694;37.494;2024-02-28T01:54:02;8.32;;;3.13;;
74213;SDS011;62576;55.694;37.494;2024-02-28T01:56:33;8.80;;;2.95;;
74213;SDS011;62576;55.694;37.494;2024-02-28T01:59:01;11.82;;;3.53;;
74213;SDS011;62576;55.694;37.494;2024-02-28T02:01:35;10.10;;;3.45;;
74213;SDS011;62576;55.694;37.494;2024-02-28T02:04:06;13.43;;;3.75;;
74213;SDS011;62576;55.694;37.494;2024-02-28T02:06:36;11.98;;;3.63;;
74213;SDS011;62576;55.694;37.494;2024-02-28T02:09:08;12.65;;;3.58;;
74213;SDS011;62576;55.694;37.494;2024-02-28T02:11:38;10.75;;;3.53;;
74213;SDS011;62576;55.694;37.494;2024-02-28T02:14:10;9.88;;;3.03;;
74213;SDS011;62576;55.694;37.494;2024-02-28T02:16:42;11.65;;;3.65;;
74213;SDS011;62576;55.694;37.494;2024-02-28T02:19:12;10.10;;;3.42;;
74213;SDS011;62576;55.694;37.494;2024-02-28T02:21:43;11.93;;;3.17;;
74213;SDS011;62576;55.694;37.494;2024-02-28T02:24:20;11.20;;;3.40;;
74213;SDS011;62576;55.694;37.494;2024-02-28T02:26:54;10.60;;;3.72;;
74213;SDS011;62576;55.694;37.494;2024-02-28T02:29:25;12.02;;;3.38;;
74213;SDS011;62576;55.694;37.494;2024-02-28T02:31:57;11.75;;;3.65;;
74213;SDS011;62576;55.694;37.494;2024-02-28T02:34:27;15.57;;;4.20;;
74213;SDS011;62576;55.694;37.494;2024-02-28T02:36:57;10.10;;;3.38;;
74213;SDS011;62576;55.694;37.494;2024-02-28T02:39:28;12.85;;;3.92;;
74213;SDS011;62576;55.694;37.494;2024-02-28T02:41:58;12.30;;;3.47;;
74213;SDS011;62576;55.694;37.494;2024-02-28T02:44:28;9.80;;;3.47;;
74213;SDS011;62576;55.694;37.494;2024-02-28T02:46:59;11.43;;;3.55;;
74213;SDS011;62576;55.694;37.494;2024-02-28T02:49:29;13.20;;;4.00;;
74213;SDS011;62576;55.694;37.494;2024-02-28T02:51:59;13.52;;;3.63;;
74213;SDS011;62576;55.694;37.494;2024-02-28T02:54:31;11.75;;;3.58;;
74213;SDS011;62576;55.694;37.494;2024-02-28T02:57:01;11.52;;;3.45;;
74213;SDS011;62576;55.694;37.494;2024-02-28T02:59:31;6.45;;;2.80;;
74213;SDS011;62576;55.694;37.494;2024-02-28T03:02:01;11.20;;;3.95;;
74213;SDS011;62576;55.694;37.494;2024-02-28T03:04:32;12.52;;;3.85;;
74213;SDS011;62576;55.694;37.494;2024-02-28T03:07:02;10.43;;;3.20;;
74213;SDS011;62576;55.694;37.494;2024-02-28T03:09:37;12.27;;;3.47;;
74213;SDS011;62576;55.694;37.494;2024-02-28T03:12:07;9.65;;;3.47;;
74213;SDS011;62576;55.694;37.494;2024-02-28T03:14:37;8.38;;;2.83;;
74213;SDS011;62576;55.694;37.494;2024-02-28T03:17:10;12.43;;;3.70;;
74213;SDS011;62576;55.694;37.494;2024-02-28T03:19:41;10.82;;;3.78;;
74213;SDS011;62576;55.694;37.494;2024-02-28T03:22:11;9.13;;;3.63;;
74213;SDS011;62576;55.694;37.494;2024-02-28T03:24:46;11.00;;;3.70;;
74213;SDS011;62576;55.694;37.494;2024-02-28T03:27:17;10.77;;;3.67;;
74213;SDS011;62576;55.694;37.494;2024-02-28T03:29:47;15.20;;;3.92;;
74213;SDS011;62576;55.694;37.494;2024-02-28T03:32:19;12.32;;;3.90;;
74213;SDS011;62576;55.694;37.494;2024-02-28T03:34:50;9.40;;;3.25;;
74213;SDS011;62576;55.694;37.494;2024-02-28T03:37:21;13.07;;;3.67;;
74213;SDS011;62576;55.694;37.494;2024-02-28T03:39:53;10.98;;;4.10;;
74213;SDS011;62576;55.694;37.494;2024-02-28T03:42:23;11.55;;;3.83;;
74213;SDS011;62576;55.694;37.494;2024-02-28T03:44:53;10.82;;;3.95;;
74213;SDS011;62576;55.694;37.494;2024-02-28T03:47:23;10.25;;;3.75;;
74213;SDS011;62576;55.694;37.494;2024-02-28T03:49:53;13.90;;;3.92;;
74213;SDS011;62576;55.694;37.494;2024-02-28T03:52:25;15.60;;;4.03;;
74213;SDS011;62576;55.694;37.494;2024-02-28T03:54:57;9.88;;;3.70;;
74213;SDS011;62576;55.694;37.494;2024-02-28T03:57:27;11.38;;;3.97;;
74213;SDS011;62576;55.694;37.494;2024-02-28T03:59:57;10.77;;;3.78;;
74213;SDS011;62576;55.694;37.494;2024-02-28T04:02:28;8.53;;;3.13;;
74213;SDS011;62576;55.694;37.494;2024-02-28T04:04:58;9.63;;;3.38;;
74213;SDS011;62576;55.694;37.494;2024-02-28T04:07:28;13.35;;;3.80;;
74213;SDS011;62576;55.694;37.494;2024-02-28T04:10:00;11.07;;;3.60;;
74213;SDS011;62576;55.694;37.494;2024-02-28T04:12:33;11.43;;;3.75;;
74213;SDS011;62576;55.694;37.494;2024-02-28T04:15:03;9.35;;;3.47;;
74213;SDS011;62576;55.694;37.494;2024-02-28T04:17:34;13.48;;;4.07;;
74213;SDS011;62576;55.694;37.494;2024-02-28T04:20:07;10.60;;;3.75;;
74213;SDS011;62576;55.694;37.494;2024-02-28T04:25:12;10.60;;;3.50;;
74213;SDS011;62576;55.694;37.494;2024-02-28T04:27:42;9.95;;;3.53;;
74213;SDS011;62576;55.694;37.494;2024-02-28T04:30:14;10.93;;;3.47;;
74213;SDS011;62576;55.694;37.494;2024-02-28T04:36:07;12.13;;;3.60;;
74213;SDS011;62576;55.694;37.494;2024-02-28T04:38:38;11.90;;;3.40;;
74213;SDS011;62576;55.694;37.494;2024-02-28T04:41:13;9.25;;;3.53;;
74213;SDS011;62576;55.694;37.494;2024-02-28T04:43:44;9.55;;;3.47;;
74213;SDS011;62576;55.694;37.494;2024-02-28T04:46:14;11.82;;;3.63;;
74213;SDS011;62576;55.694;37.494;2024-02-28T04:48:44;12.07;;;3.40;;
74213;SDS011;62576;55.694;37.494;2024-02-28T04:51:15;10.35;;;3.30;;
74213;SDS011;62576;55.694;37.494;2024-02-28T04:53:46;12.23;;;4.22;;
74213;SDS011;62576;55.694;37.494;2024-02-28T04:56:18;10.90;;;3.78;;
74213;SDS011;62576;55.694;37.494;2024-02-28T04:58:46;11.80;;;3.47;;
74213;SDS011;62576;55.694;37.494;2024-02-28T05:01:16;13.88;;;4.07;;
74213;SDS011;62576;55.694;37.494;2024-02-28T05:03:46;13.40;;;3.50;;
74213;SDS011;62576;55.694;37.494;2024-02-28T05:06:16;10.60;;;3.60;;
74213;SDS011;62576;55.694;37.494;2024-02-28T05:08:47;9.73;;;3.50;;
74213;SDS011;62576;55.694;37.494;2024-02-28T05:11:19;11.45;;;3.80;;
74213;SDS011;62576;55.694;37.494;2024-02-28T05:13:49;12.90;;;3.63;;
74213;SDS011;62576;55.694;37.494;2024-02-28T05:16:20;14.27;;;3.97;;
74213;SDS011;62576;55.694;37.494;2024-02-28T05:18:50;9.88;;;3.45;;
74213;SDS011;62576;55.694;37.494;2024-02-28T05:21:20;9.68;;;3.53;;
74213;SDS011;62576;55.694;37.494;2024-02-28T05:23:52;10.73;;;3.67;;
74213;SDS011;62576;55.694;37.494;2024-02-28T05:26:23;13.52;;;4.00;;
74213;SDS011;62576;55.694;37.494;2024-02-28T05:28:53;10.77;;;4.00;;
74213;SDS011;62576;55.694;37.494;2024-02-28T05:31:24;12.25;;;3.95;;
74213;SDS011;62576;55.694;37.494;2024-02-28T05:33:54;10.95;;;3.75;;
74213;SDS011;62576;55.694;37.494;2024-02-28T05:36:25;11.35;;;3.72;;
74213;SDS011;62576;55.694;37.494;2024-02-28T05:39:06;16.65;;;3.90;;
74213;SDS011;62576;55.694;37.494;2024-02-28T05:45:14;13.30;;;4.10;;
74213;SDS011;62576;55.694;37.494;2024-02-28T05:47:44;13.77;;;4.47;;
74213;SDS011;62576;55.694;37.494;2024-02-28T05:50:14;14.05;;;4.20;;
74213;SDS011;62576;55.694;37.494;2024-02-28T05:52:44;15.18;;;4.90;;
74213;SDS011;62576;55.694;37.494;2024-02-28T05:55:18;12.10;;;4.57;;
74213;SDS011;62576;55.694;37.494;2024-02-28T05:58:05;14.27;;;4.28;;
74213;SDS011;62576;55.694;37.494;2024-02-28T06:00:37;13.45;;;4.65;;
74213;SDS011;62576;55.694;37.494;2024-02-28T06:03:06;13.45;;;4.28;;
74213;SDS011;62576;55.694;37.494;2024-02-28T06:05:37;13.27;;;4.22;;
74213;SDS011;62576;55.694;37.494;2024-02-28T06:08:07;12.73;;;4.80;;
74213;SDS011;62576;55.694;37.494;2024-02-28T06:10:37;13.30;;;4.20;;
74213;SDS011;62576;55.694;37.494;2024-02-28T06:13:08;14.48;;;3.70;;
74213;SDS011;62576;55.694;37.494;2024-02-28T06:15:40;14.20;;;3.92;;
74213;SDS011;62576;55.694;37.494;2024-02-28T06:18:10;13.23;;;4.25;;
74213;SDS011;62576;55.694;37.494;2024-02-28T06:20:40;11.73;;;3.80;;
74213;SDS011;62576;55.694;37.494;2024-02-28T06:23:11;12.38;;;4.40;;
74213;SDS011;62576;55.694;37.494;2024-02-28T06:25:42;14.35;;;4.50;;
74213;SDS011;62576;55.694;37.494;2024-02-28T06:28:13;13.20;;;4.32;;
74213;SDS011;62576;55.694;37.494;2024-02-28T06:30:44;8.60;;;3.58;;
74213;SDS011;62576;55.694;37.494;2024-02-28T06:33:15;12.02;;;4.10;;
74213;SDS011;62576;55.694;37.494;2024-02-28T06:36:03;15.02;;;4.60;;
74213;SDS011;62576;55.694;37.494;2024-02-28T06:38:34;11.57;;;4.50;;
74213;SDS011;62576;55.694;37.494;2024-02-28T06:41:04;14.30;;;4.95;;
74213;SDS011;62576;55.694;37.494;2024-02-28T06:43:35;16.08;;;4.75;;
74213;SDS011;62576;55.694;37.494;2024-02-28T06:46:07;12.95;;;4.72;;
74213;SDS011;62576;55.694;37.494;2024-02-28T06:48:37;10.82;;;4.15;;
74213;SDS011;62576;55.694;37.494;2024-02-28T06:51:08;14.75;;;4.32;;
74213;SDS011;62576;55.694;37.494;2024-02-28T06:53:38;11.82;;;4.57;;
74213;SDS011;62576;55.694;37.494;2024-02-28T06:56:11;12.43;;;4.65;;
74213;SDS011;62576;55.694;37.494;2024-02-28T06:58:42;9.40;;;3.63;;
74213;SDS011;62576;55.694;37.494;2024-02-28T07:01:13;11.68;;;4.07;;
74213;SDS011;62576;55.694;37.494;2024-02-28T07:03:43;13.07;;;4.28;;
74213;SDS011;62576;55.694;37.494;2024-02-28T07:06:14;13.00;;;4.22;;
74213;SDS011;62576;55.694;37.494;2024-02-28T07:08:44;9.23;;;4.13;;
74213;SDS011;62576;55.694;37.494;2024-02-28T07:11:16;10.98;;;4.72;;
74213;SDS011;62576;55.694;37.494;2024-02-28T07:13:50;13.93;;;4.50;;
74213;SDS011;62576;55.694;37.494;2024-02-28T07:16:23;12.82;;;4.50;;
74213;SDS011;62576;55.694;37.494;2024-02-28T07:18:53;10.07;;;3.97;;
74213;SDS011;62576;55.694;37.494;2024-02-28T07:21:23;13.63;;;4.55;;
74213;SDS011;62576;55.694;37.494;2024-02-28T07:23:54;10.50;;;4.63;;
74213;SDS011;62576;55.694;37.494;2024-02-28T07:26:25;11.38;;;4.43;;
74213;SDS011;62576;55.694;37.494;2024-02-28T07:28:56;15.52;;;5.40;;
74213;SDS011;62576;55.694;37.494;2024-02-28T07:31:28;14.88;;;4.53;;
74213;SDS011;62576;55.694;37.494;2024-02-28T07:33:59;11.50;;;4.40;;
74213;SDS011;62576;55.694;37.494;2024-02-28T07:36:30;15.82;;;4.93;;
74213;SDS011;62576;55.694;37.494;2024-02-28T07:39:01;13.05;;;4.95;;
74213;SDS011;62576;55.694;37.494;2024-02-28T07:41:31;13.77;;;4.57;;
74213;SDS011;62576;55.694;37.494;2024-02-28T07:44:02;13.13;;;4.40;;
74213;SDS011;62576;55.694;37.494;2024-02-28T07:46:35;16.08;;;4.75;;
74213;SDS011;62576;55.694;37.494;2024-02-28T07:49:05;13.70;;;4.25;;
74213;SDS011;62576;55.694;37.494;2024-02-28T07:51:39;14.93;;;4.68;;
74213;SDS011;62576;55.694;37.494;2024-02-28T07:54:10;15.70;;;4.50;;
74213;SDS011;62576;55.694;37.494;2024-02-28T07:56:41;11.70;;;4.72;;
74213;SDS011;62576;55.694;37.494;2024-02-28T07:59:12;13.45;;;4.63;;
74213;SDS011;62576;55.694;37.494;2024-02-28T08:01:44;13.13;;;4.60;;
74213;SDS011;62576;55.694;37.494;2024-02-28T08:04:14;12.60;;;5.10;;
74213;SDS011;62576;55.694;37.494;2024-02-28T08:06:46;12.13;;;4.53;;
74213;SDS011;62576;55.694;37.494;2024-02-28T08:09:16;18.98;;;6.13;;
74213;SDS011;62576;55.694;37.494;2024-02-28T08:11:50;14.88;;;4.90;;
74213;SDS011;62576;55.694;37.494;2024-02-28T08:14:21;15.52;;;4.45;;
74213;SDS011;62576;55.694;37.494;2024-02-28T08:16:58;18.52;;;5.10;;
74213;SDS011;62576;55.694;37.494;2024-02-28T08:19:29;16.08;;;4.80;;
74213;SDS011;62576;55.694;37.494;2024-02-28T08:22:00;14.55;;;4.43;;
74213;SDS011;62576;55.694;37.494;2024-02-28T08:24:34;13.25;;;5.25;;
74213;SDS011;62576;55.694;37.494;2024-02-28T08:27:08;15.60;;;4.95;;
74213;SDS011;62576;55.694;37.494;2024-02-28T08:30:40;12.65;;;4.72;;
74213;SDS011;62576;55.694;37.494;2024-02-28T08:33:12;15.65;;;5.90;;
74213;SDS011;62576;55.694;37.494;2024-02-28T08:35:43;16.77;;;5.20;;
74213;SDS011;62576;55.694;37.494;2024-02-28T08:38:13;12.25;;;3.63;;
74213;SDS011;62576;55.694;37.494;2024-02-28T08:40:43;14.25;;;5.15;;
74213;SDS011;62576;55.694;37.494;2024-02-28T08:43:14;13.35;;;4.85;;
74213;SDS011;62576;55.694;37.494;2024-02-28T08:45:44;15.68;;;4.93;;
74213;SDS011;62576;55.694;37.494;2024-02-28T08:48:16;14.40;;;5.10;;
74213;SDS011;62576;55.694;37.494;2024-02-28T08:50:45;14.88;;;4.85;;
74213;SDS011;62576;55.694;37.494;2024-02-28T08:53:16;16.05;;;5.40;;
74213;SDS011;62576;55.694;37.494;2024-02-28T08:55:46;16.05;;;5.35;;
74213;SDS011;62576;55.694;37.494;2024-02-28T08:58:14;12.77;;;5.32;;
74213;SDS011;62576;55.694;37.494;2024-02-28T09:00:46;15.15;;;5.20;;
74213;SDS011;62576;55.694;37.494;2024-02-28T09:03:19;24.95;;;6.68;;
74213;SDS011;62576;55.694;37.494;2024-02-28T09:05:50;14.65;;;5.45;;
74213;SDS011;62576;55.694;37.494;2024-02-28T09:08:20;15.68;;;5.93;;
74213;SDS011;62576;55.694;37.494;2024-02-28T09:10:51;15.77;;;5.97;;
74213;SDS011;62576;55.694;37.494;2024-02-28T09:13:21;14.20;;;5.90;;
74213;SDS011;62576;55.694;37.494;2024-02-28T09:15:51;13.90;;;5.22;;
74213;SDS011;62576;55.694;37.494;2024-02-28T09:18:24;15.27;;;5.25;;
74213;SDS011;62576;55.694;37.494;2024-02-28T09:20:55;16.20;;;5.53;;
74213;SDS011;62576;55.694;37.494;2024-02-28T09:23:28;16.38;;;5.43;;
74213;SDS011;62576;55.694;37.494;2024-02-28T09:26:12;14.32;;;5.05;;
74213;SDS011;62576;55.694;37.494;2024-02-28T09:28:42;14.77;;;5.18;;
74213;SDS011;62576;55.694;37.494;2024-02-28T09:31:14;14.43;;;5.43;;
74213;SDS011;62576;55.694;37.494;2024-02-28T09:33:46;12.90;;;5.20;;
74213;SDS011;62576;55.694;37.494;2024-02-28T09:36:17;15.98;;;5.55;;
74213;SDS011;62576;55.694;37.494;2024-02-28T09:38:48;15.18;;;5.45;;
74213;SDS011;62576;55.694;37.494;2024-02-28T09:41:18;11.65;;;4.97;;
74213;SDS011;62576;55.694;37.494;2024-02-28T09:43:50;21.08;;;6.72;;
74213;SDS011;62576;55.694;37.494;2024-02-28T09:46:20;14.93;;;5.63;;
74213;SDS011;62576;55.694;37.494;2024-02-28T09:48:52;17.10;;;6.10;;
74213;SDS011;62576;55.694;37.494;2024-02-28T09:51:24;18.13;;;5.85;;
74213;SDS011;62576;55.694;37.494;2024-02-28T09:53:55;13.30;;;5.82;;
74213;SDS011;62576;55.694;37.494;2024-02-28T09:56:28;19.63;;;5.73;;
74213;SDS011;62576;55.694;37.494;2024-02-28T09:58:56;12.95;;;5.57;;
74213;SDS011;62576;55.694;37.494;2024-02-28T10:01:28;14.63;;;5.65;;
74213;SDS011;62576;55.694;37.494;2024-02-28T10:04:01;15.32;;;6.35;;
74213;SDS011;62576;55.694;37.494;2024-02-28T10:06:32;13.65;;;5.93;;
74213;SDS011;62576;55.694;37.494;2024-02-28T10:09:02;16.20;;;6.53;;
74213;SDS011;62576;55.694;37.494;2024-02-28T10:11:33;13.90;;;5.75;;
74213;SDS011;62576;55.694;37.494;2024-02-28T10:14:06;12.27;;;5.45;;
74213;SDS011;62576;55.694;37.494;2024-02-28T10:16:39;16.55;;;6.35;;
74213;SDS011;62576;55.694;37.494;2024-02-28T10:19:13;14.98;;;6.97;;
74213;SDS011;62576;55.694;37.494;2024-02-28T10:21:45;12.75;;;6.00;;
74213;SDS011;62576;55.694;37.494;2024-02-28T10:24:15;16.90;;;6.60;;
74213;SDS011;62576;55.694;37.494;2024-02-28T10:26:47;14.00;;;6.10;;
74213;SDS011;62576;55.694;37.494;2024-02-28T10:29:24;15.18;;;5.90;;
74213;SDS011;62576;55.694;37.494;2024-02-28T10:31:56;14.73;;;6.72;;
74213;SDS011;62576;55.694;37.494;2024-02-28T10:34:28;23.52;;;6.65;;
74213;SDS011;62576;55.694;37.494;2024-02-28T10:40:16;16.10;;;6.93;;
74213;SDS011;62576;55.694;37.494;2024-02-28T10:43:05;17.58;;;6.75;;
74213;SDS011;62576;55.694;37.494;2024-02-28T10:55:47;18.60;;;6.70;;
74213;SDS011;62576;55.694;37.494;2024-02-28T10:58:15;15.02;;;6.38;;
74213;SDS011;62576;55.694;37.494;2024-02-28T11:00:48;20.88;;;7.50;;
74213;SDS011;62576;55.694;37.494;2024-02-28T11:03:20;21.00;;;7.55;;
74213;SDS011;62576;55.694;37.494;2024-02-28T11:05:51;15.85;;;7.20;;
74213;SDS011;62576;55.694;37.494;2024-02-28T11:08:22;17.80;;;7.00;;
74213;SDS011;62576;55.694;37.494;2024-02-28T11:10:58;14.05;;;6.50;;
74213;SDS011;62576;55.694;37.494;2024-02-28T11:13:33;14.35;;;6.57;;
74213;SDS011;62576;55.694;37.494;2024-02-28T11:16:09;14.52;;;7.13;;
74213;SDS011;62576;55.694;37.494;2024-02-28T11:18:57;14.75;;;6.88;;
74213;SDS011;62576;55.694;37.494;2024-02-28T11:21:28;15.50;;;6.85;;
74213;SDS011;62576;55.694;37.494;2024-02-28T11:24:00;16.23;;;7.55;;
74213;SDS011;62576;55.694;37.494;2024-02-28T11:26:33;17.30;;;7.87;;
74213;SDS011;62576;55.694;37.494;2024-02-28T11:29:03;15.05;;;7.50;;
74213;SDS011;62576;55.694;37.494;2024-02-28T11:31:34;22.55;;;7.78;;
74213;SDS011;62576;55.694;37.494;2024-02-28T11:34:05;15.10;;;7.35;;
74213;SDS011;62576;55.694;37.494;2024-02-28T11:36:35;16.52;;;6.65;;
74213;SDS011;62576;55.694;37.494;2024-02-28T11:39:06;16.48;;;6.35;;
74213;SDS011;62576;55.694;37.494;2024-02-28T11:41:37;15.95;;;7.43;;
74213;SDS011;62576;55.694;37.494;2024-02-28T11:44:08;22.33;;;7.50;;
74213;SDS011;62576;55.694;37.494;2024-02-28T11:46:42;17.58;;;7.00;;
74213;SDS011;62576;55.694;37.494;2024-02-28T11:49:14;14.50;;;6.72;;
74213;SDS011;62576;55.694;37.494;2024-02-28T11:51:45;20.02;;;7.10;;
74213;SDS011;62576;55.694;37.494;2024-02-28T11:54:16;19.60;;;6.60;;
74213;SDS011;62576;55.694;37.494;2024-02-28T11:56:48;20.02;;;7.30;;
74213;SDS011;62576;55.694;37.494;2024-02-28T11:59:18;18.50;;;7.20;;
74213;SDS011;62576;55.694;37.494;2024-02-28T12:01:49;15.20;;;7.07;;
74213;SDS011;62576;55.694;37.494;2024-02-28T12:04:20;16.30;;;6.72;;
74213;SDS011;62576;55.694;37.494;2024-02-28T12:06:56;16.98;;;7.20;;
74213;SDS011;62576;55.694;37.494;2024-02-28T12:09:46;15.57;;;6.55;;
74213;SDS011;62576;55.694;37.494;2024-02-28T12:12:18;15.98;;;7.50;;
74213;SDS011;62576;55.694;37.494;2024-02-28T12:14:49;20.30;;;7.35;;
74213;SDS011;62576;55.694;37.494;2024-02-28T12:17:19;17.80;;;7.00;;
74213;SDS011;62576;55.694;37.494;2024-02-28T12:19:49;15.73;;;6.47;;
74213;SDS011;62576;55.694;37.494;2024-02-28T12:22:20;17.95;;;6.72;;
74213;SDS011;62576;55.694;37.494;2024-02-28T12:24:50;17.42;;;6.93;;
74213;SDS011;62576;55.694;37.494;2024-02-28T12:27:22;16.10;;;6.72;;
74213;SDS011;62576;55.694;37.494;2024-02-28T12:29:52;19.17;;;6.87;;
74213;SDS011;62576;55.694;37.494;2024-02-28T12:32:37;15.10;;;6.50;;
74213;SDS011;62576;55.694;37.494;2024-02-28T12:35:07;25.58;;;7.10;;
74213;SDS011;62576;55.694;37.494;2024-02-28T12:37:38;18.60;;;6.97;;
74213;SDS011;62576;55.694;37.494;2024-02-28T12:40:08;23.73;;;7.70;;
74213;SDS011;62576;55.694;37.494;2024-02-28T12:42:40;14.98;;;7.40;;
74213;SDS011;62576;55.694;37.494;2024-02-28T12:45:10;18.33;;;7.10;;
74213;SDS011;62576;55.694;37.494;2024-02-28T12:47:41;13.65;;;7.13;;
74213;SDS011;62576;55.694;37.494;2024-02-28T12:50:13;18.08;;;6.80;;
74213;SDS011;62576;55.694;37.494;2024-02-28T12:52:43;16.08;;;6.90;;
74213;SDS011;62576;55.694;37.494;2024-02-28T12:55:32;20.40;;;7.28;;
74213;SDS011;62576;55.694;37.494;2024-02-28T12:58:20;18.67;;;7.05;;
74213;SDS011;62576;55.694;37.494;2024-02-28T13:00:49;20.08;;;7.50;;
74213;SDS011;62576;55.694;37.494;2024-02-28T13:03:19;15.45;;;6.53;;
74213;SDS011;62576;55.694;37.494;2024-02-28T13:05:49;15.50;;;6.82;;
74213;SDS011;62576;55.694;37.494;2024-02-28T13:08:20;20.20;;;7.30;;
74213;SDS011;62576;55.694;37.494;2024-02-28T13:10:50;16.52;;;6.30;;
74213;SDS011;62576;55.694;37.494;2024-02-28T13:13:22;14.63;;;5.80;;
74213;SDS011;62576;55.694;37.494;2024-02-28T13:15:53;16.90;;;6.28;;
74213;SDS011;62576;55.694;37.494;2024-02-28T13:18:23;14.32;;;6.35;;
74213;SDS011;62576;55.694;37.494;2024-02-28T13:20:53;17.88;;;6.03;;
74213;SDS011;62576;55.694;37.494;2024-02-28T13:23:24;14.18;;;6.10;;
74213;SDS011;62576;55.694;37.494;2024-02-28T13:25:54;16.10;;;5.60;;
74213;SDS011;62576;55.694;37.494;2024-02-28T13:28:26;15.68;;;5.97;;
74213;SDS011;62576;55.694;37.494;2024-02-28T13:30:58;15.98;;;5.50;;
74213;SDS011;62576;55.694;37.494;2024-02-28T13:33:31;17.33;;;5.80;;
74213;SDS011;62576;55.694;37.494;2024-02-28T13:36:01;16.58;;;6.30;;
74213;SDS011;62576;55.694;37.494;2024-02-28T13:38:32;13.23;;;6.03;;
74213;SDS011;62576;55.694;37.494;2024-02-28T13:41:02;12.90;;;5.60;;
74213;SDS011;62576;55.694;37.494;2024-02-28T13:43:35;13.88;;;6.10;;
74213;SDS011;62576;55.694;37.494;2024-02-28T13:46:05;15.73;;;5.82;;
74213;SDS011;62576;55.694;37.494;2024-02-28T13:48:36;14.93;;;5.83;;
74213;SDS011;62576;55.694;37.494;2024-02-28T13:51:06;15.00;;;5.65;;
74213;SDS011;62576;55.694;37.494;2024-02-28T13:53:36;14.13;;;5.70;;
74213;SDS011;62576;55.694;37.494;2024-02-28T13:56:06;17.27;;;6.00;;
74213;SDS011;62576;55.694;37.494;2024-02-28T13:58:35;13.05;;;5.32;;
74213;SDS011;62576;55.694;37.494;2024-02-28T14:01:06;14.00;;;5.65;;
74213;SDS011;62576;55.694;37.494;2024-02-28T14:03:36;11.55;;;5.40;;
74213;SDS011;62576;55.694;37.494;2024-02-28T14:06:07;11.98;;;5.45;;
74213;SDS011;62576;55.694;37.494;2024-02-28T14:08:37;14.38;;;5.32;;
74213;SDS011;62576;55.694;37.494;2024-02-28T14:11:07;16.10;;;5.70;;
74213;SDS011;62576;55.694;37.494;2024-02-28T14:13:39;16.10;;;5.13;;
74213;SDS011;62576;55.694;37.494;2024-02-28T14:16:10;16.00;;;6.00;;
74213;SDS011;62576;55.694;37.494;2024-02-28T14:18:40;12.77;;;5.38;;
74213;SDS011;62576;55.694;37.494;2024-02-28T14:21:10;11.70;;;4.65;;
74213;SDS011;62576;55.694;37.494;2024-02-28T14:23:41;14.30;;;5.32;;
74213;SDS011;62576;55.694;37.494;2024-02-28T14:26:11;12.68;;;5.72;;
74213;SDS011;62576;55.694;37.494;2024-02-28T14:28:43;13.35;;;5.20;;
74213;SDS011;62576;55.694;37.494;2024-02-28T14:31:13;18.35;;;6.38;;
74213;SDS011;62576;55.694;37.494;2024-02-28T14:33:45;13.43;;;5.47;;
74213;SDS011;62576;55.694;37.494;2024-02-28T14:36:16;13.43;;;5.78;;
74213;SDS011;62576;55.694;37.494;2024-02-28T14:38:48;18.20;;;5.90;;
74213;SDS011;62576;55.694;37.494;2024-02-28T14:41:19;16.30;;;5.93;;
74213;SDS011;62576;55.694;37.494;2024-02-28T14:43:51;13.52;;;5.10;;
74213;SDS011;62576;55.694;37.494;2024-02-28T14:46:26;17.80;;;6.30;;
74213;SDS011;62576;55.694;37.494;2024-02-28T14:49:05;15.60;;;5.75;;
74213;SDS011;62576;55.694;37.494;2024-02-28T14:51:38;15.55;;;5.55;;
74213;SDS011;62576;55.694;37.494;2024-02-28T14:54:09;14.75;;;5.47;;
74213;SDS011;62576;55.694;37.494;2024-02-28T14:56:40;14.27;;;5.45;;
74213;SDS011;62576;55.694;37.494;2024-02-28T14:59:10;16.38;;;5.90;;
74213;SDS011;62576;55.694;37.494;2024-02-28T15:01:40;16.67;;;6.25;;
74213;SDS011;62576;55.694;37.494;2024-02-28T15:04:11;11.73;;;5.38;;
74213;SDS011;62576;55.694;37.494;2024-02-28T15:06:42;13.18;;;5.45;;
74213;SDS011;62576;55.694;37.494;2024-02-28T15:09:13;16.27;;;5.88;;
74213;SDS011;62576;55.694;37.494;2024-02-28T15:11:43;15.15;;;6.03;;
74213;SDS011;62576;55.694;37.494;2024-02-28T15:14:15;11.80;;;5.10;;